createdAt,value
2018-07-03T00:01:45.981Z,55809.52
2018-07-03T00:04:15.383Z,55813.63
2018-07-03T00:06:44.880Z,55814.66
2018-07-03T00:09:14.334Z,55839.34
2018-07-03T00:11:43.775Z,55811.57
2018-07-03T00:14:13.196Z,55805.41
2018-07-03T00:16:47.897Z,55801.29
2018-07-03T00:19:17.587Z,55837.28
2018-07-03T00:21:47.034Z,55829.05
2018-07-03T00:24:16.509Z,55780.73
2018-07-03T00:26:45.923Z,55814.66
2018-07-03T00:29:15.379Z,55808.49
2018-07-03T00:31:45.298Z,55806.43
2018-07-03T00:34:14.743Z,55834.20
2018-07-03T00:36:44.153Z,55808.49
2018-07-03T00:39:14.393Z,55811.57
2018-07-03T00:41:43.732Z,55787.93
2018-07-03T00:44:13.153Z,55797.18
2018-07-03T00:46:42.602Z,55812.60
2018-07-03T00:49:12.033Z,55815.69
2018-07-03T00:51:41.476Z,55816.71
2018-07-03T00:54:10.912Z,55825.97
2018-07-03T00:56:40.317Z,55811.57
2018-07-03T00:59:09.716Z,55821.86
2018-07-03T01:01:39.366Z,55831.11
2018-07-03T01:04:08.691Z,55814.66
2018-07-03T01:06:38.123Z,55817.75
2018-07-03T01:09:09.379Z,55805.41
2018-07-03T01:11:40.057Z,55789.98
2018-07-03T01:14:09.515Z,55843.45
2018-07-03T01:16:38.970Z,55836.25
2018-07-03T01:19:08.436Z,55802.32
2018-07-03T01:21:37.857Z,55800.27
2018-07-03T01:24:07.295Z,55824.94
2018-07-03T01:26:36.729Z,55828.02
2018-07-03T01:29:06.183Z,55807.46
2018-07-03T01:31:35.641Z,55833.17
2018-07-03T01:34:05.294Z,55825.97
2018-07-03T01:36:34.673Z,55868.12
2018-07-03T01:39:04.892Z,55808.49
2018-07-03T01:41:34.433Z,55825.97
2018-07-03T01:44:03.842Z,55796.15
2018-07-03T01:46:33.210Z,55820.83
2018-07-03T01:49:02.632Z,55823.91
2018-07-03T01:51:32.123Z,55847.56
2018-07-03T01:54:01.779Z,55804.38
2018-07-03T01:56:31.148Z,55857.84
2018-07-03T01:59:00.535Z,55827.00
2018-07-03T02:01:29.935Z,55853.73
2018-07-03T02:03:59.426Z,55843.45
2018-07-03T02:06:28.516Z,55806.43
2018-07-03T02:08:57.897Z,55841.39
2018-07-03T02:11:27.428Z,55829.05
2018-07-03T02:13:57.006Z,55841.39
2018-07-03T02:16:26.473Z,55834.20
2018-07-03T02:18:55.848Z,55811.57
2018-07-03T02:21:25.276Z,55829.05
2018-07-03T02:23:54.690Z,55831.11
2018-07-03T02:26:24.139Z,55835.22
2018-07-03T02:28:53.646Z,55844.48
2018-07-03T02:31:23.296Z,55839.34
2018-07-03T02:33:53.100Z,55828.02
2018-07-03T02:36:22.729Z,55853.73
2018-07-03T02:38:52.165Z,55847.56
2018-07-03T02:41:21.732Z,55804.38
2018-07-03T02:43:51.296Z,55843.45
2018-07-03T02:46:20.773Z,55839.34
2018-07-03T02:48:50.261Z,55829.05
2018-07-03T02:51:30.772Z,55841.39
2018-07-03T02:54:00.222Z,55828.02
2018-07-03T02:56:29.633Z,55873.27
2018-07-03T02:58:59.048Z,55820.83
2018-07-03T03:01:28.562Z,55834.20
2018-07-03T03:03:58.053Z,55836.25
2018-07-03T03:06:27.473Z,55835.22
2018-07-03T03:08:56.843Z,55844.48
2018-07-03T03:11:26.264Z,55815.69
2018-07-03T03:13:56.944Z,55840.36
2018-07-03T03:16:26.367Z,55849.62
2018-07-03T03:18:55.880Z,55825.97
2018-07-03T03:21:25.276Z,55812.60
2018-07-03T03:23:54.691Z,55841.39
2018-07-03T03:26:24.073Z,55802.32
2018-07-03T03:28:53.473Z,55823.91
2018-07-03T03:31:22.904Z,55835.22
2018-07-03T03:33:52.342Z,55829.05
2018-07-03T03:36:21.767Z,55822.88
2018-07-03T03:38:51.153Z,55829.05
2018-07-03T03:41:20.592Z,55794.10
2018-07-03T03:43:50.004Z,55836.25
2018-07-03T03:46:19.423Z,55775.59
2018-07-03T03:48:48.884Z,55869.15
2018-07-03T03:51:18.353Z,55828.02
2018-07-03T03:53:47.812Z,55824.94
2018-07-03T03:56:17.213Z,55823.91
2018-07-03T03:58:46.596Z,55804.38
2018-07-03T04:01:16.004Z,55820.83
2018-07-03T04:03:45.407Z,55843.45
2018-07-03T04:06:14.977Z,55836.25
2018-07-03T04:08:44.430Z,55829.05
2018-07-03T04:11:13.785Z,55837.28
2018-07-03T04:13:43.208Z,55849.62
2018-07-03T04:16:12.575Z,55825.97
2018-07-03T04:18:42.013Z,55818.77
2018-07-03T04:21:11.410Z,55807.46
2018-07-03T04:23:40.813Z,55805.41
2018-07-03T04:26:10.237Z,55805.41
2018-07-03T04:28:39.704Z,55818.77
2018-07-03T04:31:09.111Z,55809.52
2018-07-03T04:33:38.500Z,55848.59
2018-07-03T04:36:07.904Z,55821.86
2018-07-03T04:38:37.380Z,55835.22
2018-07-03T04:41:06.901Z,55838.31
2018-07-03T04:43:36.311Z,55828.02
2018-07-03T04:46:05.744Z,55832.14
2018-07-03T04:48:35.131Z,55818.77
2018-07-03T04:51:05.388Z,55817.75
2018-07-03T04:53:34.823Z,55812.60
2018-07-03T04:56:04.291Z,55824.94
2018-07-03T04:58:33.672Z,55824.94
2018-07-03T05:01:03.119Z,55822.88
2018-07-03T05:03:32.504Z,55835.22
2018-07-03T05:06:02.046Z,55814.66
2018-07-03T05:08:31.439Z,55847.56
2018-07-03T05:11:00.920Z,55817.75
2018-07-03T05:13:30.271Z,55846.53
2018-07-03T05:15:59.762Z,55797.18
2018-07-03T05:18:29.241Z,55833.17
2018-07-03T05:20:58.626Z,55823.91
2018-07-03T05:23:27.991Z,55851.68
2018-07-03T05:25:57.392Z,55802.32
2018-07-03T05:28:26.808Z,55822.88
2018-07-03T05:30:56.240Z,55832.14
2018-07-03T05:33:25.662Z,55840.36
2018-07-03T05:35:55.085Z,55827.00
2018-07-03T05:38:24.781Z,55851.68
2018-07-03T05:40:54.033Z,55816.71
2018-07-03T05:43:23.371Z,55803.35
2018-07-03T05:45:52.750Z,55833.17
2018-07-03T05:48:22.170Z,55834.20
2018-07-03T05:50:51.539Z,55774.56
2018-07-03T05:53:20.944Z,55757.08
2018-07-03T05:55:50.345Z,55668.66
2018-07-03T05:58:19.770Z,55636.79
2018-07-03T06:00:49.191Z,55619.31
2018-07-03T06:03:18.713Z,55614.17
2018-07-03T06:05:48.156Z,55580.24
2018-07-03T06:08:17.617Z,55572.02
2018-07-03T06:10:47.037Z,55592.58
2018-07-03T06:13:16.474Z,55558.65
2018-07-03T06:15:46.099Z,55567.91
2018-07-03T06:18:15.501Z,55575.10
2018-07-03T06:20:45.167Z,55584.36
2018-07-03T06:23:14.523Z,55525.75
2018-07-03T06:25:43.980Z,55593.61
2018-07-03T06:28:13.371Z,55568.93
2018-07-03T06:30:43.107Z,55619.31
2018-07-03T06:33:12.529Z,55609.03
2018-07-03T06:35:41.892Z,55592.58
2018-07-03T06:38:12.095Z,55634.73
2018-07-03T06:40:41.553Z,55658.38
2018-07-03T06:43:11.195Z,55602.86
2018-07-03T06:45:40.698Z,55619.31
2018-07-03T06:48:10.131Z,55652.21
2018-07-03T06:50:39.482Z,55661.46
2018-07-03T06:53:08.873Z,55588.47
2018-07-03T06:55:38.344Z,55604.92
2018-07-03T06:58:07.818Z,55709.79
2018-07-03T07:00:37.182Z,55802.32
2018-07-03T07:03:06.646Z,55816.71
2018-07-03T07:05:36.095Z,55836.25
2018-07-03T07:08:05.579Z,55831.11
2018-07-03T07:10:34.928Z,55843.45
2018-07-03T07:13:04.398Z,55828.02
2018-07-03T07:15:33.855Z,55864.01
2018-07-03T07:18:03.349Z,55830.08
2018-07-03T07:20:32.766Z,55854.76
2018-07-03T07:23:02.191Z,55874.29
2018-07-03T07:25:31.692Z,55871.21
2018-07-03T07:28:01.212Z,55839.34
2018-07-03T07:30:30.580Z,55853.73
2018-07-03T07:32:59.947Z,55850.64
2018-07-03T07:35:29.376Z,55855.79
2018-07-03T07:37:58.774Z,55843.45
2018-07-03T07:40:28.158Z,55853.73
2018-07-03T07:42:57.588Z,55860.93
2018-07-03T07:45:27.047Z,55837.28
2018-07-03T07:47:56.461Z,55857.84
2018-07-03T07:50:25.956Z,55849.62
2018-07-03T07:52:55.701Z,55831.11
2018-07-03T07:55:25.142Z,55846.53
2018-07-03T07:57:54.572Z,55835.22
2018-07-03T08:00:24.013Z,55833.17
2018-07-03T08:02:53.482Z,55840.36
2018-07-03T08:05:22.993Z,55812.60
2018-07-03T08:07:52.410Z,55831.11
2018-07-03T08:10:21.811Z,55805.41
2018-07-03T08:12:51.233Z,55851.68
2018-07-03T08:15:20.717Z,55836.25
2018-07-03T08:17:50.135Z,55841.39
2018-07-03T08:20:25.925Z,55813.63
2018-07-03T08:22:56.029Z,55843.45
2018-07-03T08:25:25.464Z,55824.94
2018-07-03T08:27:54.862Z,55796.15
2018-07-03T08:30:24.291Z,55810.55
2018-07-03T08:32:53.656Z,55802.32
2018-07-03T08:35:23.043Z,55807.46
2018-07-03T08:37:52.484Z,55811.57
2018-07-03T08:40:21.910Z,55789.98
2018-07-03T08:42:51.342Z,55755.02
2018-07-03T08:45:20.741Z,55700.54
2018-07-03T08:47:50.162Z,55687.17
2018-07-03T08:50:19.564Z,55732.41
2018-07-03T08:52:48.969Z,55713.90
2018-07-03T08:55:18.435Z,55686.14
2018-07-03T08:57:47.850Z,55689.22
2018-07-03T09:00:17.240Z,55657.35
2018-07-03T09:02:46.644Z,55617.25
2018-07-03T09:05:15.999Z,55666.61
2018-07-03T09:07:45.351Z,55668.66
2018-07-03T09:10:14.733Z,55699.51
2018-07-03T09:12:44.172Z,55674.83
2018-07-03T09:15:13.554Z,55675.86
2018-07-03T09:17:42.974Z,55634.73
2018-07-03T09:20:12.537Z,55628.56
2018-07-03T09:22:41.956Z,55662.49
2018-07-03T09:25:11.372Z,55697.45
2018-07-03T09:27:40.741Z,55727.27
2018-07-03T09:30:10.237Z,55727.27
2018-07-03T09:32:39.678Z,55701.56
2018-07-03T09:35:09.127Z,55688.20
2018-07-03T09:37:38.554Z,55670.72
2018-07-03T09:40:07.940Z,55673.80
2018-07-03T09:42:37.350Z,55685.11
2018-07-03T09:45:08.155Z,55678.94
2018-07-03T09:47:37.663Z,55656.32
2018-07-03T09:50:07.182Z,55713.90
2018-07-03T09:52:36.564Z,55726.24
2018-07-03T09:55:06.062Z,55742.69
2018-07-03T09:57:35.492Z,55706.70
2018-07-03T10:00:05.317Z,55730.35
2018-07-03T10:02:34.713Z,55747.83
2018-07-03T10:05:04.647Z,55713.90
2018-07-03T10:07:33.782Z,55713.90
2018-07-03T10:10:03.308Z,55714.93
2018-07-03T10:12:32.724Z,55734.46
2018-07-03T10:15:02.145Z,55727.27
2018-07-03T10:17:31.592Z,55752.97
2018-07-03T10:20:00.981Z,55743.71
2018-07-03T10:22:30.415Z,55808.49
2018-07-03T10:24:59.847Z,55766.34
2018-07-03T10:27:29.331Z,55763.25
2018-07-03T10:29:58.805Z,55763.25
2018-07-03T10:32:28.253Z,55833.17
2018-07-03T10:34:57.754Z,55802.32
2018-07-03T10:37:27.171Z,55834.20
2018-07-03T10:39:56.656Z,55817.75
2018-07-03T10:42:26.050Z,55830.08
2018-07-03T10:44:55.455Z,55792.04
2018-07-03T10:47:24.893Z,55808.49
2018-07-03T10:49:54.220Z,55809.52
2018-07-03T10:52:23.710Z,55836.25
2018-07-03T10:54:53.165Z,55831.11
2018-07-03T10:57:22.659Z,55823.91
2018-07-03T10:59:52.037Z,55831.11
2018-07-03T11:02:21.487Z,55825.97
2018-07-03T11:04:50.879Z,55829.05
2018-07-03T11:07:20.338Z,55814.66
2018-07-03T11:09:49.757Z,55816.71
2018-07-03T11:12:19.168Z,55804.38
2018-07-03T11:14:48.577Z,55793.07
2018-07-03T11:17:18.008Z,55822.88
2018-07-03T11:19:47.533Z,55828.02
2018-07-03T11:22:16.964Z,55812.60
2018-07-03T11:24:46.460Z,55831.11
2018-07-03T11:27:15.944Z,55821.86
2018-07-03T11:29:45.361Z,55822.88
2018-07-03T11:32:14.792Z,55784.84
2018-07-03T11:34:44.138Z,55840.36
2018-07-03T11:37:13.532Z,55812.60
2018-07-03T11:39:43.003Z,55814.66
2018-07-03T11:42:12.443Z,55796.15
2018-07-03T11:44:41.918Z,55817.75
2018-07-03T11:47:11.292Z,55804.38
2018-07-03T11:49:40.757Z,55779.70
2018-07-03T11:52:10.228Z,55787.93
2018-07-03T11:54:39.815Z,55818.77
2018-07-03T11:57:09.289Z,55788.95
2018-07-03T11:59:38.699Z,55788.95
2018-07-03T12:02:08.145Z,55812.60
2018-07-03T12:04:37.830Z,55798.21
2018-07-03T12:07:07.270Z,55803.35
2018-07-03T12:09:36.754Z,55793.07
2018-07-03T12:12:06.125Z,55776.62
2018-07-03T12:14:35.308Z,55789.98
2018-07-03T12:17:04.782Z,55765.31
2018-07-03T12:19:34.202Z,55759.14
2018-07-03T12:22:03.665Z,55780.73
2018-07-03T12:24:33.135Z,55792.04
2018-07-03T12:27:02.539Z,55794.10
2018-07-03T12:29:31.948Z,55747.83
2018-07-03T12:32:01.480Z,55763.25
2018-07-03T12:34:30.856Z,55766.34
2018-07-03T12:37:00.349Z,55769.42
2018-07-03T12:39:29.778Z,55785.87
2018-07-03T12:41:59.163Z,55779.70
2018-07-03T12:44:28.646Z,55788.95
2018-07-03T12:46:57.792Z,55755.02
2018-07-03T12:49:27.119Z,55771.48
2018-07-03T12:51:56.519Z,55814.66
2018-07-03T12:54:25.952Z,55783.81
2018-07-03T12:56:55.301Z,55785.87
2018-07-03T12:59:24.712Z,55777.64
2018-07-03T13:01:54.153Z,55792.04
2018-07-03T13:04:23.542Z,55755.02
2018-07-03T13:06:52.927Z,55761.20
2018-07-03T13:09:22.361Z,55759.14
2018-07-03T13:11:51.855Z,55741.66
2018-07-03T13:14:21.233Z,55752.97
2018-07-03T13:16:50.661Z,55772.50
2018-07-03T13:19:20.246Z,55747.83
2018-07-03T13:21:49.687Z,55785.87
2018-07-03T13:24:19.065Z,55768.39
2018-07-03T13:26:48.462Z,55752.97
2018-07-03T13:29:18.238Z,55768.39
2018-07-03T13:31:47.858Z,55759.14
2018-07-03T13:34:17.282Z,55767.36
2018-07-03T13:36:46.663Z,55748.86
2018-07-03T13:39:16.043Z,55740.63
2018-07-03T13:41:45.458Z,55744.74
2018-07-03T13:44:14.850Z,55768.39
2018-07-03T13:46:44.260Z,55750.91
2018-07-03T13:49:13.710Z,55716.98
2018-07-03T13:51:43.056Z,55763.25
2018-07-03T13:54:12.666Z,55752.97
2018-07-03T13:56:42.157Z,55730.35
2018-07-03T13:59:11.551Z,55771.48
2018-07-03T14:01:40.952Z,55765.31
2018-07-03T14:04:10.152Z,55765.31
2018-07-03T14:06:39.524Z,55771.48
2018-07-03T14:09:09.805Z,55750.91
2018-07-03T14:11:39.317Z,55734.46
2018-07-03T14:14:08.901Z,55749.89
2018-07-03T14:16:38.320Z,55792.04
2018-07-03T14:19:07.855Z,55757.08
2018-07-03T14:21:37.293Z,55742.69
2018-07-03T14:24:06.804Z,55745.77
2018-07-03T14:26:36.279Z,55752.97
2018-07-03T14:29:05.683Z,55777.64
2018-07-03T14:31:35.084Z,55787.93
2018-07-03T14:34:04.500Z,55775.59
2018-07-03T14:36:33.844Z,55781.76
2018-07-03T14:39:03.302Z,55788.95
2018-07-03T14:41:32.699Z,55806.43
2018-07-03T14:44:02.112Z,55778.67
2018-07-03T14:46:31.492Z,55793.07
2018-07-03T14:49:00.925Z,55798.21
2018-07-03T14:51:30.379Z,55774.56
2018-07-03T14:53:59.771Z,55758.11
2018-07-03T14:56:29.171Z,55794.10
2018-07-03T14:58:58.569Z,55769.42
2018-07-03T15:01:27.950Z,55775.59
2018-07-03T15:03:57.472Z,55763.25
2018-07-03T15:06:26.911Z,55771.48
2018-07-03T15:08:56.363Z,55778.67
2018-07-03T15:11:25.790Z,55815.69
2018-07-03T15:13:55.366Z,55762.22
2018-07-03T15:16:24.841Z,55786.90
2018-07-03T15:18:59.546Z,55767.36
2018-07-03T15:21:28.919Z,55789.98
2018-07-03T15:23:58.296Z,55767.36
2018-07-03T15:26:27.688Z,55799.24
2018-07-03T15:28:57.061Z,55777.64
2018-07-03T15:31:26.631Z,55788.95
2018-07-03T15:33:56.023Z,55778.67
2018-07-03T15:36:25.431Z,55769.42
2018-07-03T15:38:54.809Z,55799.24
2018-07-03T15:41:24.184Z,55810.55
2018-07-03T15:44:10.470Z,55798.21
2018-07-03T15:46:39.882Z,55796.15
2018-07-03T15:49:09.247Z,55806.43
2018-07-03T15:51:38.657Z,55804.38
2018-07-03T15:54:08.031Z,55798.21
2018-07-03T15:56:37.412Z,55821.86
2018-07-03T15:59:07.031Z,55787.93
2018-07-03T16:01:36.473Z,55804.38
2018-07-03T16:05:23.004Z,55803.35
2018-07-03T16:08:11.200Z,55780.73
2018-07-03T16:10:40.593Z,55779.70
2018-07-03T16:13:10.198Z,55780.73
2018-07-03T16:15:39.593Z,55791.01
2018-07-03T16:18:08.960Z,55802.32
2018-07-03T16:20:39.754Z,55796.15
2018-07-03T16:23:09.584Z,55780.73
2018-07-03T16:25:39.182Z,55752.97
2018-07-03T16:28:08.550Z,55800.27
2018-07-03T16:30:38.042Z,55811.57
2018-07-03T16:33:07.487Z,55776.62
2018-07-03T16:35:36.940Z,55759.14
2018-07-03T16:38:06.478Z,55789.98
2018-07-03T16:40:35.873Z,55812.60
2018-07-03T16:43:05.654Z,55816.71
2018-07-03T16:45:35.112Z,55792.04
2018-07-03T16:48:04.463Z,55819.80
2018-07-03T16:50:33.973Z,55793.07
2018-07-03T16:53:03.395Z,55822.88
2018-07-03T16:55:32.856Z,55807.46
2018-07-03T16:58:02.278Z,55798.21
2018-07-03T17:00:31.928Z,55805.41
2018-07-03T17:03:01.355Z,55787.93
2018-07-03T17:05:30.754Z,55791.01
2018-07-03T17:08:00.333Z,55813.63
2018-07-03T17:10:30.841Z,55808.49
2018-07-03T17:13:00.198Z,55820.83
2018-07-03T17:15:29.617Z,55804.38
2018-07-03T17:17:59.060Z,55808.49
2018-07-03T17:20:28.443Z,55798.21
2018-07-03T17:22:58.018Z,55821.86
2018-07-03T17:25:27.451Z,55815.69
2018-07-03T17:27:56.935Z,55773.53
2018-07-03T17:30:26.347Z,55792.04
2018-07-03T17:32:55.733Z,55835.22
2018-07-03T17:35:25.177Z,55800.27
2018-07-03T17:37:54.905Z,55829.05
2018-07-03T17:40:41.398Z,55788.95
2018-07-03T17:43:29.083Z,55780.73
2018-07-03T17:46:08.249Z,55821.86
2018-07-03T17:48:37.687Z,55839.34
2018-07-03T17:51:07.089Z,55810.55
2018-07-03T17:53:36.474Z,55837.28
2018-07-03T17:56:05.909Z,55793.07
2018-07-03T17:58:35.627Z,55824.94
2018-07-03T18:01:05.069Z,55822.88
2018-07-03T18:03:34.544Z,55818.77
2018-07-03T18:06:03.925Z,55813.63
2018-07-03T18:08:33.304Z,55801.29
2018-07-03T18:11:02.845Z,55803.35
2018-07-03T18:13:32.315Z,55838.31
2018-07-03T18:16:01.729Z,55814.66
2018-07-03T18:18:31.128Z,55831.11
2018-07-03T18:21:00.558Z,55825.97
2018-07-03T18:23:30.059Z,55793.07
2018-07-03T18:25:59.468Z,55847.56
2018-07-03T18:28:28.960Z,55835.22
2018-07-03T18:30:58.373Z,55812.60
2018-07-03T18:33:27.769Z,55851.68
2018-07-03T18:35:57.151Z,55820.83
2018-07-03T18:38:26.495Z,55810.55
2018-07-03T18:40:55.909Z,55819.80
2018-07-03T18:43:25.373Z,55834.20
2018-07-03T18:45:54.756Z,55848.59
2018-07-03T18:48:24.172Z,55843.45
2018-07-03T18:50:53.629Z,55834.20
2018-07-03T18:53:23.012Z,55832.14
2018-07-03T18:55:52.445Z,55816.71
2018-07-03T18:58:21.905Z,55845.50
2018-07-03T19:00:51.420Z,55836.25
2018-07-03T19:03:20.901Z,55824.94
2018-07-03T19:05:50.276Z,55827.00
2018-07-03T19:08:19.525Z,55829.05
2018-07-03T19:10:49.004Z,55818.77
2018-07-03T19:13:18.387Z,55846.53
2018-07-03T19:15:47.773Z,55841.39
2018-07-03T19:18:17.582Z,55838.31
2018-07-03T19:20:47.036Z,55847.56
2018-07-03T19:23:16.497Z,55846.53
2018-07-03T19:25:46.117Z,55827.00
2018-07-03T19:28:15.586Z,55837.28
2018-07-03T19:30:45.052Z,55871.21
2018-07-03T19:33:14.472Z,55864.01
2018-07-03T19:35:43.875Z,55823.91
2018-07-03T19:38:13.366Z,55859.90
2018-07-03T19:40:43.004Z,55831.11
2018-07-03T19:43:50.847Z,55859.90
2018-07-03T19:46:20.218Z,55845.50
2018-07-03T19:48:49.607Z,55843.45
2018-07-03T19:51:19.023Z,55861.95
2018-07-03T19:53:48.438Z,55853.73
2018-07-03T19:56:17.882Z,55849.62
2018-07-03T19:58:47.324Z,55857.84
2018-07-03T20:01:16.805Z,55855.79
2018-07-03T20:03:46.230Z,55825.97
2018-07-03T20:06:15.601Z,55837.28
2018-07-03T20:08:45.038Z,55859.90
2018-07-03T20:11:14.479Z,55861.95
2018-07-03T20:13:43.899Z,55841.39
2018-07-03T20:16:13.288Z,55874.29
2018-07-03T20:18:42.856Z,55866.07
2018-07-03T20:21:12.241Z,55855.79
2018-07-03T20:23:41.612Z,55855.79
2018-07-03T20:26:11.171Z,55850.64
2018-07-03T20:28:40.858Z,55847.56
2018-07-03T20:31:10.313Z,55849.62
2018-07-03T20:33:39.721Z,55871.21
2018-07-03T20:36:09.126Z,55876.35
2018-07-03T20:38:38.617Z,55865.04
2018-07-03T20:41:09.283Z,55861.95
2018-07-03T20:43:40.951Z,55878.41
2018-07-03T20:46:10.960Z,55833.17
2018-07-03T20:48:40.398Z,55851.68
2018-07-03T20:51:09.853Z,55834.20
2018-07-03T20:53:39.256Z,55879.43
2018-07-03T20:56:08.712Z,55874.29
2018-07-03T20:58:38.147Z,55862.98
2018-07-03T21:01:07.659Z,55847.56
2018-07-03T21:03:37.056Z,55852.70
2018-07-03T21:06:06.887Z,55866.07
2018-07-03T21:08:36.283Z,55862.98
2018-07-03T21:11:05.877Z,55892.80
2018-07-03T21:13:35.360Z,55860.93
2018-07-03T21:16:04.784Z,55859.90
2018-07-03T21:18:34.214Z,55862.98
2018-07-03T21:21:03.653Z,55839.34
2018-07-03T21:23:33.055Z,55857.84
2018-07-03T21:26:02.514Z,55841.39
2018-07-03T21:28:31.657Z,55833.17
2018-07-03T21:31:01.060Z,55849.62
2018-07-03T21:33:30.475Z,55851.68
2018-07-03T21:35:59.887Z,55834.20
2018-07-03T21:38:29.316Z,55827.00
2018-07-03T21:40:58.674Z,55861.95
2018-07-03T21:43:28.074Z,55878.41
2018-07-03T21:45:57.439Z,55894.86
2018-07-03T21:48:26.894Z,55849.62
2018-07-03T21:50:56.297Z,55839.34
2018-07-03T21:53:25.800Z,55873.27
2018-07-03T21:55:55.312Z,55856.81
2018-07-03T21:58:24.698Z,55877.38
2018-07-03T22:00:54.118Z,55849.62
2018-07-03T22:03:23.540Z,55850.64
2018-07-03T22:05:52.988Z,55871.21
2018-07-03T22:08:22.388Z,55847.56
2018-07-03T22:10:51.787Z,55816.71
2018-07-03T22:13:21.157Z,55873.27
2018-07-03T22:15:50.548Z,55876.35
2018-07-03T22:18:20.019Z,55878.41
2018-07-03T22:20:49.385Z,55875.32
2018-07-03T22:23:18.854Z,55869.15
2018-07-03T22:25:48.278Z,55879.43
2018-07-03T22:28:17.624Z,55875.32
2018-07-03T22:30:47.005Z,55882.52
2018-07-03T22:33:16.345Z,55885.61
2018-07-03T22:35:45.747Z,55872.24
2018-07-03T22:38:15.159Z,55880.46
2018-07-03T22:40:44.565Z,55850.64
2018-07-03T22:43:14.091Z,55859.90
2018-07-03T22:45:43.506Z,55839.34
2018-07-03T22:48:13.093Z,55892.80
2018-07-03T22:50:42.523Z,55856.81
2018-07-03T22:53:12.253Z,55873.27
2018-07-03T22:55:41.624Z,55900.00
2018-07-03T22:58:11.049Z,55853.73
2018-07-03T23:00:40.463Z,55849.62
2018-07-03T23:03:10.019Z,55874.29
2018-07-03T23:05:39.547Z,55871.21
2018-07-03T23:08:08.938Z,55882.52
2018-07-03T23:10:38.464Z,55896.91
2018-07-03T23:13:07.882Z,55866.07
2018-07-03T23:15:37.252Z,55877.38
2018-07-03T23:18:06.407Z,55884.57
2018-07-03T23:20:35.774Z,55888.69
2018-07-03T23:23:05.289Z,55855.79
2018-07-03T23:25:34.748Z,55866.07
2018-07-03T23:28:04.179Z,55882.52
2018-07-03T23:30:33.556Z,55872.24
2018-07-03T23:33:02.980Z,55849.62
2018-07-03T23:35:32.536Z,55861.95
2018-07-03T23:38:01.921Z,55877.38
2018-07-03T23:40:31.319Z,55892.80
2018-07-03T23:43:00.735Z,55884.57
2018-07-03T23:45:53.015Z,55903.08
2018-07-03T23:48:39.293Z,55887.66
2018-07-03T23:51:25.843Z,55872.24
2018-07-03T23:54:12.071Z,55852.70
2018-07-03T23:56:59.246Z,55881.49
2018-07-03T23:59:45.736Z,55874.29
